createdAt,value
2019-02-14T00:01:01.163Z,21.33
2019-02-14T00:03:30.019Z,22.50
2019-02-14T00:05:58.867Z,23.70
2019-02-14T00:08:27.750Z,21.17
2019-02-14T00:10:56.624Z,20.83
2019-02-14T00:13:25.528Z,21.93
2019-02-14T00:15:54.562Z,16.63
2019-02-14T00:18:23.465Z,18.50
2019-02-14T00:20:52.358Z,19.03
2019-02-14T00:23:21.246Z,21.17
2019-02-14T00:25:50.103Z,19.17
2019-02-14T00:28:19.067Z,18.53
2019-02-14T00:30:47.943Z,22.50
2019-02-14T00:33:17.013Z,17.73
2019-02-14T00:35:45.928Z,20.33
2019-02-14T00:38:14.770Z,23.57
2019-02-14T00:40:43.692Z,21.27
2019-02-14T00:43:12.562Z,19.83
2019-02-14T00:45:41.563Z,20.47
2019-02-14T00:48:10.597Z,19.30
2019-02-14T00:50:39.480Z,20.80
2019-02-14T00:53:08.765Z,21.90
2019-02-14T00:55:37.604Z,19.93
2019-02-14T00:58:06.630Z,21.27
2019-02-14T01:00:35.503Z,23.67
2019-02-14T01:03:04.602Z,22.93
2019-02-14T01:05:33.966Z,22.10
2019-02-14T01:08:02.908Z,27.67
2019-02-14T01:10:31.750Z,26.07
2019-02-14T01:13:00.626Z,22.23
2019-02-14T01:15:29.743Z,21.37
2019-02-14T01:17:58.636Z,20.90
2019-02-14T01:20:27.493Z,21.80
2019-02-14T01:22:56.441Z,20.57
2019-02-14T01:25:25.278Z,20.93
2019-02-14T01:27:54.119Z,23.23
2019-02-14T01:30:23.000Z,22.87
2019-02-14T01:32:51.882Z,20.93
2019-02-14T01:35:20.785Z,22.53
2019-02-14T01:37:49.621Z,24.37
2019-02-14T01:40:18.583Z,27.27
2019-02-14T01:42:47.459Z,21.77
2019-02-14T01:45:16.350Z,23.77
2019-02-14T01:47:45.200Z,25.87
2019-02-14T01:50:14.126Z,23.90
2019-02-14T01:52:42.980Z,25.40
2019-02-14T01:55:11.858Z,25.00
2019-02-14T01:57:40.819Z,23.17
2019-02-14T02:00:12.264Z,24.43
2019-02-14T02:02:41.168Z,24.67
2019-02-14T02:05:10.223Z,22.07
2019-02-14T02:07:39.123Z,27.70
2019-02-14T02:10:08.859Z,24.63
2019-02-14T02:12:37.708Z,25.37
2019-02-14T02:15:07.123Z,25.70
2019-02-14T02:17:36.002Z,26.27
2019-02-14T02:20:05.311Z,33.43
2019-02-14T02:22:34.167Z,24.20
2019-02-14T02:25:04.260Z,29.60
2019-02-14T02:27:33.173Z,24.13
2019-02-14T02:30:02.087Z,26.80
2019-02-14T02:32:30.983Z,29.90
2019-02-14T02:34:59.875Z,25.93
2019-02-14T02:37:28.757Z,26.27
2019-02-14T02:39:57.637Z,27.10
2019-02-14T02:42:26.540Z,24.13
2019-02-14T02:44:55.407Z,30.97
2019-02-14T02:47:24.318Z,26.90
2019-02-14T02:49:53.208Z,23.37
2019-02-14T02:52:22.078Z,26.80
2019-02-14T02:54:50.954Z,25.37
2019-02-14T02:57:20.393Z,26.83
2019-02-14T02:59:49.278Z,27.30
2019-02-14T03:02:18.138Z,28.87
2019-02-14T03:04:47.060Z,27.50
2019-02-14T03:07:16.058Z,31.20
2019-02-14T03:09:44.965Z,27.87
2019-02-14T03:12:13.791Z,28.67
2019-02-14T03:14:42.711Z,29.30
2019-02-14T03:17:11.585Z,27.90
2019-02-14T03:19:40.629Z,25.73
2019-02-14T03:22:09.464Z,24.73
2019-02-14T03:24:38.356Z,27.70
2019-02-14T03:27:07.199Z,27.13
2019-02-14T03:29:36.139Z,32.27
2019-02-14T03:32:05.001Z,31.27
2019-02-14T03:34:33.841Z,29.80
2019-02-14T03:37:02.756Z,29.67
2019-02-14T03:39:31.718Z,28.00
2019-02-14T03:42:00.605Z,29.47
2019-02-14T03:44:29.623Z,28.60
2019-02-14T03:46:58.609Z,28.07
2019-02-14T03:49:27.587Z,29.17
2019-02-14T03:51:56.596Z,29.43
2019-02-14T03:54:25.438Z,27.27
2019-02-14T03:56:54.353Z,28.40
2019-02-14T03:59:23.206Z,31.63
2019-02-14T04:01:52.377Z,30.53
2019-02-14T04:04:21.425Z,29.20
2019-02-14T04:06:50.362Z,30.57
2019-02-14T04:09:19.437Z,32.40
2019-02-14T04:11:48.590Z,33.53
2019-02-14T04:14:17.602Z,29.93
2019-02-14T04:16:46.580Z,31.53
2019-02-14T04:19:15.535Z,31.63
2019-02-14T04:21:44.404Z,33.13
2019-02-14T04:24:13.254Z,29.60
2019-02-14T04:26:42.255Z,29.90
2019-02-14T04:29:11.125Z,31.03
2019-02-14T04:31:40.079Z,28.90
2019-02-14T04:34:08.961Z,32.03
2019-02-14T04:36:37.917Z,30.63
2019-02-14T04:39:07.486Z,35.60
2019-02-14T04:41:36.386Z,28.27
2019-02-14T04:44:05.261Z,29.53
2019-02-14T04:46:34.203Z,31.53
2019-02-14T04:49:03.038Z,32.93
2019-02-14T04:51:31.962Z,28.53
2019-02-14T04:54:00.822Z,28.30
2019-02-14T04:56:29.775Z,31.07
2019-02-14T04:58:58.634Z,35.63
2019-02-14T05:01:27.539Z,31.60
2019-02-14T05:03:56.514Z,36.57
2019-02-14T05:06:25.423Z,34.03
2019-02-14T05:08:54.299Z,31.67
2019-02-14T05:11:23.289Z,30.63
2019-02-14T05:13:52.278Z,33.00
2019-02-14T05:16:21.201Z,32.43
2019-02-14T05:18:50.055Z,38.53
2019-02-14T05:21:19.050Z,30.40
2019-02-14T05:23:47.950Z,31.57
2019-02-14T05:26:16.820Z,32.10
2019-02-14T05:28:45.729Z,34.33
2019-02-14T05:31:14.590Z,31.23
2019-02-14T05:33:43.477Z,35.33
2019-02-14T05:36:12.387Z,29.27
2019-02-14T05:38:41.273Z,37.73
2019-02-14T05:41:10.118Z,31.93
2019-02-14T05:43:39.109Z,32.07
2019-02-14T05:46:08.051Z,34.57
2019-02-14T05:48:36.979Z,30.73
2019-02-14T05:51:05.827Z,37.63
2019-02-14T05:53:34.705Z,30.00
2019-02-14T05:56:03.603Z,32.13
2019-02-14T05:58:32.506Z,29.13
2019-02-14T06:01:01.763Z,31.33
2019-02-14T06:03:30.759Z,32.73
2019-02-14T06:05:59.604Z,33.37
2019-02-14T06:08:28.537Z,29.73
2019-02-14T06:10:57.482Z,34.27
2019-02-14T06:13:26.472Z,32.57
2019-02-14T06:15:55.457Z,33.33
2019-02-14T06:18:24.320Z,32.20
2019-02-14T06:20:53.231Z,33.93
2019-02-14T06:23:22.134Z,32.40
2019-02-14T06:25:51.015Z,34.10
2019-02-14T06:28:19.917Z,35.17
2019-02-14T06:30:48.886Z,40.03
2019-02-14T06:33:17.904Z,36.47
2019-02-14T06:35:46.808Z,37.90
2019-02-14T06:38:15.712Z,51.23
2019-02-14T06:40:44.578Z,53.47
2019-02-14T06:43:13.468Z,62.80
2019-02-14T06:45:42.412Z,65.67
2019-02-14T06:48:11.335Z,44.23
2019-02-14T06:50:40.305Z,36.27
2019-02-14T06:53:09.162Z,32.43
2019-02-14T06:55:38.191Z,34.77
2019-02-14T06:58:07.063Z,35.67
2019-02-14T07:00:35.982Z,40.13
2019-02-14T07:03:04.826Z,39.40
2019-02-14T07:05:33.750Z,35.70
2019-02-14T07:08:02.711Z,38.67
2019-02-14T07:10:31.607Z,37.80
2019-02-14T07:13:00.468Z,42.20
2019-02-14T07:15:29.522Z,38.97
2019-02-14T07:17:58.398Z,35.83
2019-02-14T07:20:27.411Z,39.03
2019-02-14T07:22:56.393Z,40.47
2019-02-14T07:25:25.302Z,37.83
2019-02-14T07:27:54.210Z,34.60
2019-02-14T07:30:23.204Z,34.70
2019-02-14T07:32:52.172Z,32.67
2019-02-14T07:35:21.218Z,33.60
2019-02-14T07:37:50.094Z,34.33
2019-02-14T07:40:19.230Z,32.70
2019-02-14T07:42:48.215Z,27.87
2019-02-14T07:45:17.208Z,30.67
2019-02-14T07:47:46.079Z,29.93
2019-02-14T07:50:15.095Z,27.43
2019-02-14T07:52:43.959Z,29.50
2019-02-14T07:55:12.942Z,31.47
2019-02-14T07:57:42.042Z,30.03
2019-02-14T08:00:11.906Z,30.07
2019-02-14T08:02:40.775Z,31.67
2019-02-14T08:05:09.881Z,36.33
2019-02-14T08:07:38.764Z,30.50
2019-02-14T08:10:08.612Z,27.43
2019-02-14T08:12:37.557Z,29.70
2019-02-14T08:15:07.682Z,28.33
2019-02-14T08:17:36.536Z,28.23
2019-02-14T08:20:05.764Z,27.70
2019-02-14T08:22:34.657Z,26.53
2019-02-14T08:25:03.663Z,28.63
2019-02-14T08:27:32.673Z,24.63
2019-02-14T08:30:01.729Z,22.70
2019-02-14T08:32:30.671Z,21.47
2019-02-14T08:34:59.733Z,19.50
2019-02-14T08:37:28.598Z,25.47
2019-02-14T08:39:57.487Z,22.37
2019-02-14T08:42:26.336Z,22.10
2019-02-14T08:44:55.295Z,19.43
2019-02-14T08:47:24.195Z,20.57
2019-02-14T08:49:53.151Z,18.03
2019-02-14T08:52:22.144Z,21.20
2019-02-14T08:54:50.987Z,20.53
2019-02-14T08:57:19.886Z,19.40
2019-02-14T08:59:48.734Z,20.57
2019-02-14T09:02:17.629Z,20.13
2019-02-14T09:04:46.478Z,19.43
2019-02-14T09:07:15.474Z,19.67
2019-02-14T09:09:44.316Z,20.27
2019-02-14T09:12:13.244Z,15.50
2019-02-14T09:14:42.154Z,17.63
2019-02-14T09:17:11.064Z,21.57
2019-02-14T09:19:39.939Z,21.33
2019-02-14T09:22:08.987Z,19.73
2019-02-14T09:24:37.847Z,22.77
2019-02-14T09:27:06.808Z,18.47
2019-02-14T09:29:35.894Z,18.17
2019-02-14T09:32:04.768Z,17.30
2019-02-14T09:34:33.642Z,16.57
2019-02-14T09:37:02.534Z,14.67
2019-02-14T09:39:31.665Z,14.43
2019-02-14T09:42:00.682Z,14.13
2019-02-14T09:44:29.571Z,12.47
2019-02-14T09:46:58.490Z,13.30
2019-02-14T09:49:27.342Z,14.70
2019-02-14T09:51:56.265Z,16.13
2019-02-14T09:54:25.207Z,18.53
2019-02-14T09:56:54.087Z,12.70
2019-02-14T09:59:22.992Z,15.27
2019-02-14T10:01:51.866Z,14.00
2019-02-14T10:04:20.737Z,15.77
2019-02-14T10:06:49.592Z,14.13
2019-02-14T10:09:18.486Z,14.93
2019-02-14T10:11:47.357Z,14.93
2019-02-14T10:14:16.242Z,13.60
2019-02-14T10:16:45.158Z,14.20
2019-02-14T10:19:14.100Z,13.70
2019-02-14T10:21:43.084Z,16.13
2019-02-14T10:24:11.991Z,15.70
2019-02-14T10:26:40.851Z,12.90
2019-02-14T10:29:09.763Z,16.33
2019-02-14T10:31:38.811Z,16.17
2019-02-14T10:34:07.815Z,14.60
2019-02-14T10:36:36.742Z,14.10
2019-02-14T10:39:05.959Z,12.17
2019-02-14T10:41:34.872Z,14.27
2019-02-14T10:44:03.685Z,44.70
2019-02-14T10:46:32.532Z,32.37
2019-02-14T10:49:01.405Z,17.80
2019-02-14T10:51:30.339Z,31.77
2019-02-14T10:53:59.193Z,16.07
2019-02-14T10:56:28.186Z,13.60
2019-02-14T10:58:59.027Z,11.40
2019-02-14T11:01:27.529Z,12.90
2019-02-14T11:03:56.459Z,11.63
2019-02-14T11:06:25.375Z,14.23
2019-02-14T11:08:54.174Z,13.20
2019-02-14T11:11:23.054Z,11.10
2019-02-14T11:13:52.022Z,13.53
2019-02-14T11:16:20.913Z,11.93
2019-02-14T11:18:49.820Z,11.30
2019-02-14T11:21:18.671Z,12.67
2019-02-14T11:23:47.591Z,14.50
2019-02-14T11:26:16.579Z,11.87
2019-02-14T11:28:45.428Z,11.70
2019-02-14T11:31:14.275Z,10.10
2019-02-14T11:33:43.169Z,10.90
2019-02-14T11:36:12.014Z,11.40
2019-02-14T11:38:41.009Z,9.80
2019-02-14T11:41:09.929Z,9.63
2019-02-14T11:43:38.802Z,9.40
2019-02-14T11:46:07.672Z,9.87
2019-02-14T11:48:36.586Z,8.37
2019-02-14T11:51:05.430Z,10.40
2019-02-14T11:53:34.353Z,10.63
2019-02-14T11:56:03.226Z,9.03
2019-02-14T11:58:32.261Z,9.37
2019-02-14T12:01:01.133Z,9.50
2019-02-14T12:03:29.986Z,8.70
2019-02-14T12:05:58.904Z,8.83
2019-02-14T12:08:27.771Z,10.57
2019-02-14T12:10:56.628Z,7.27
2019-02-14T12:13:25.527Z,10.40
2019-02-14T12:15:54.408Z,9.43
2019-02-14T12:18:24.165Z,8.23
2019-02-14T12:20:53.103Z,8.93
2019-02-14T12:23:21.972Z,7.67
2019-02-14T12:25:50.810Z,7.80
2019-02-14T12:28:19.652Z,9.20
2019-02-14T12:30:48.599Z,6.37
2019-02-14T12:33:17.422Z,7.03
2019-02-14T12:35:46.355Z,7.57
2019-02-14T12:38:15.225Z,6.50
2019-02-14T12:40:44.036Z,5.77
2019-02-14T12:43:12.895Z,6.83
2019-02-14T12:45:41.787Z,6.33
2019-02-14T12:48:10.642Z,6.07
2019-02-14T12:50:39.604Z,5.77
2019-02-14T12:53:08.538Z,11.13
2019-02-14T12:55:37.641Z,8.00
2019-02-14T12:58:06.464Z,5.77
2019-02-14T13:00:35.356Z,6.17
2019-02-14T13:03:04.243Z,6.40
2019-02-14T13:05:33.215Z,8.93
2019-02-14T13:08:02.069Z,10.30
2019-02-14T13:10:30.942Z,6.70
2019-02-14T13:12:59.948Z,7.10
2019-02-14T13:15:28.944Z,5.83
2019-02-14T13:17:57.802Z,9.57
2019-02-14T13:20:26.717Z,6.67
2019-02-14T13:22:55.582Z,9.43
2019-02-14T13:25:24.505Z,7.30
2019-02-14T13:27:53.365Z,9.43
2019-02-14T13:30:22.933Z,7.53
2019-02-14T13:32:51.856Z,8.50
2019-02-14T13:35:20.851Z,6.47
2019-02-14T13:37:49.699Z,11.53
2019-02-14T13:40:18.957Z,8.63
2019-02-14T13:42:47.841Z,8.57
2019-02-14T13:45:17.567Z,11.20
2019-02-14T13:47:46.430Z,7.33
2019-02-14T13:50:16.088Z,9.87
2019-02-14T13:52:45.322Z,8.20
2019-02-14T13:55:14.244Z,10.90
2019-02-14T13:57:43.150Z,11.87
2019-02-14T14:00:16.507Z,10.63
2019-02-14T14:02:45.451Z,9.07
2019-02-14T14:05:14.311Z,8.60
2019-02-14T14:07:43.403Z,9.43
2019-02-14T14:10:12.304Z,11.73
2019-02-14T14:12:42.405Z,10.57
2019-02-14T14:15:11.501Z,10.50
2019-02-14T14:17:40.416Z,9.33
2019-02-14T14:20:09.459Z,9.10
2019-02-14T14:22:38.359Z,8.80
2019-02-14T14:25:07.200Z,7.90
2019-02-14T14:27:36.151Z,8.10
2019-02-14T14:30:05.228Z,9.87
2019-02-14T14:32:34.249Z,9.23
2019-02-14T14:35:03.115Z,7.93
2019-02-14T14:37:31.997Z,9.63
2019-02-14T14:40:00.917Z,13.50
2019-02-14T14:42:57.727Z,11.70
2019-02-14T14:45:36.346Z,11.17
2019-02-14T14:48:05.257Z,8.27
2019-02-14T14:50:34.111Z,13.43
2019-02-14T14:53:03.173Z,8.87
2019-02-14T14:55:32.049Z,8.20
2019-02-14T14:58:01.054Z,10.37
2019-02-14T15:00:29.895Z,8.10
2019-02-14T15:02:58.797Z,8.33
2019-02-14T15:05:27.651Z,7.30
2019-02-14T15:07:56.714Z,11.33
2019-02-14T15:10:25.678Z,8.27
2019-02-14T15:12:54.597Z,11.27
2019-02-14T15:15:23.681Z,10.57
2019-02-14T15:17:52.577Z,15.77
2019-02-14T15:20:21.575Z,13.17
2019-02-14T15:22:50.779Z,19.67
2019-02-14T15:25:19.708Z,11.43
2019-02-14T15:27:48.620Z,13.37
2019-02-14T15:30:17.491Z,13.80
2019-02-14T15:32:46.744Z,7.40
2019-02-14T15:35:15.707Z,12.13
2019-02-14T15:37:47.044Z,8.27
2019-02-14T15:40:15.237Z,8.60
2019-02-14T15:42:44.141Z,10.37
2019-02-14T15:45:13.000Z,11.70
2019-02-14T15:47:41.852Z,14.57
2019-02-14T15:50:10.827Z,31.43
2019-02-14T15:52:39.833Z,28.07
2019-02-14T15:55:08.729Z,20.13
2019-02-14T15:57:37.568Z,26.00
2019-02-14T16:00:10.255Z,25.77
2019-02-14T16:02:37.342Z,17.63
2019-02-14T16:05:06.386Z,16.90
2019-02-14T16:07:36.821Z,13.23
2019-02-14T16:10:06.035Z,11.80
2019-02-14T16:12:35.006Z,9.63
2019-02-14T16:15:06.063Z,9.80
2019-02-14T16:17:35.380Z,17.63
2019-02-14T16:20:05.804Z,9.93
2019-02-14T16:22:34.676Z,10.47
2019-02-14T16:25:04.711Z,13.43
2019-02-14T16:27:34.283Z,12.33
2019-02-14T16:30:05.417Z,10.10
2019-02-14T16:32:33.844Z,7.10
2019-02-14T16:35:02.740Z,8.40
2019-02-14T16:37:31.591Z,8.33
2019-02-14T16:40:00.608Z,7.53
2019-02-14T16:42:29.466Z,15.63
2019-02-14T16:44:58.359Z,13.77
2019-02-14T16:47:27.227Z,11.57
2019-02-14T16:49:56.232Z,39.70
2019-02-14T16:52:25.070Z,27.43
2019-02-14T16:54:54.023Z,10.93
2019-02-14T16:57:22.866Z,15.13
2019-02-14T16:59:51.858Z,9.83
2019-02-14T17:02:20.701Z,7.73
2019-02-14T17:04:49.613Z,7.73
2019-02-14T17:07:18.566Z,6.97
2019-02-14T17:09:47.468Z,5.37
2019-02-14T17:12:16.408Z,7.83
2019-02-14T17:14:45.423Z,6.83
2019-02-14T17:17:14.329Z,7.83
2019-02-14T17:19:43.179Z,7.00
2019-02-14T17:22:12.076Z,7.77
2019-02-14T17:24:41.141Z,10.50
2019-02-14T17:27:09.993Z,7.60
2019-02-14T17:29:38.902Z,7.53
2019-02-14T17:32:07.729Z,9.00
2019-02-14T17:34:36.687Z,7.07
2019-02-14T17:37:05.571Z,11.13
2019-02-14T17:39:34.546Z,15.33
2019-02-14T17:42:03.419Z,14.50
2019-02-14T17:44:32.448Z,24.93
2019-02-14T17:47:01.246Z,15.93
2019-02-14T17:49:30.236Z,12.97
2019-02-14T17:51:59.071Z,16.80
2019-02-14T17:54:27.965Z,16.83
2019-02-14T17:56:56.833Z,12.60
2019-02-14T17:59:25.824Z,12.53
2019-02-14T18:01:54.675Z,11.97
2019-02-14T18:04:23.646Z,11.37
2019-02-14T18:06:52.489Z,8.93
2019-02-14T18:09:21.418Z,10.80
2019-02-14T18:11:50.280Z,13.33
2019-02-14T18:14:19.166Z,7.90
2019-02-14T18:16:48.189Z,8.87
2019-02-14T18:19:17.050Z,9.27
2019-02-14T18:21:45.902Z,8.07
2019-02-14T18:24:14.791Z,8.17
2019-02-14T18:26:43.855Z,7.77
2019-02-14T18:29:12.714Z,6.20
2019-02-14T18:31:41.652Z,6.43
2019-02-14T18:34:10.661Z,7.07
2019-02-14T18:36:39.616Z,7.53
2019-02-14T18:39:08.617Z,5.90
2019-02-14T18:41:37.629Z,9.83
2019-02-14T18:44:06.465Z,12.67
2019-02-14T18:46:35.517Z,10.77
2019-02-14T18:49:04.451Z,10.00
2019-02-14T18:51:33.354Z,10.33
2019-02-14T18:54:02.570Z,18.97
2019-02-14T18:56:31.558Z,24.50
2019-02-14T18:59:00.548Z,27.83
2019-02-14T19:01:29.427Z,21.60
2019-02-14T19:03:58.400Z,16.73
2019-02-14T19:06:28.170Z,20.97
2019-02-14T19:08:57.247Z,16.70
2019-02-14T19:11:26.171Z,15.33
2019-02-14T19:13:55.024Z,25.70
2019-02-14T19:16:24.030Z,15.73
2019-02-14T19:18:52.929Z,16.87
2019-02-14T19:21:21.817Z,16.37
2019-02-14T19:23:50.674Z,13.60
2019-02-14T19:26:19.572Z,14.80
2019-02-14T19:28:48.425Z,12.07
2019-02-14T19:31:17.478Z,10.73
2019-02-14T19:33:46.390Z,13.20
2019-02-14T19:36:15.470Z,24.00
2019-02-14T19:38:44.413Z,24.70
2019-02-14T19:41:13.301Z,63.67
2019-02-14T19:43:42.211Z,23.50
2019-02-14T19:46:11.197Z,15.03
2019-02-14T19:48:40.060Z,11.87
2019-02-14T19:51:08.961Z,13.97
2019-02-14T19:53:37.842Z,12.40
2019-02-14T19:56:06.755Z,12.53
2019-02-14T19:58:35.614Z,12.07
2019-02-14T20:01:04.776Z,11.33
2019-02-14T20:03:33.623Z,12.23
2019-02-14T20:06:02.557Z,12.63
2019-02-14T20:08:31.441Z,13.23
2019-02-14T20:11:00.347Z,13.73
2019-02-14T20:13:29.243Z,12.93
2019-02-14T20:15:58.321Z,13.80
2019-02-14T20:18:27.160Z,12.17
2019-02-14T20:20:56.227Z,14.73
2019-02-14T20:23:25.241Z,13.47
2019-02-14T20:25:54.158Z,10.97
2019-02-14T20:28:22.954Z,10.77
2019-02-14T20:30:51.940Z,11.23
2019-02-14T20:33:20.812Z,13.13
2019-02-14T20:35:49.679Z,11.20
2019-02-14T20:38:18.574Z,17.07
2019-02-14T20:40:47.532Z,11.63
2019-02-14T20:43:16.590Z,12.17
2019-02-14T20:45:45.479Z,9.87
2019-02-14T20:48:14.454Z,12.17
2019-02-14T20:50:43.407Z,10.47
2019-02-14T20:53:12.281Z,10.93
2019-02-14T20:55:41.145Z,11.80
2019-02-14T20:58:10.110Z,15.37
2019-02-14T21:00:39.140Z,12.23
2019-02-14T21:03:08.093Z,11.90
2019-02-14T21:05:37.011Z,13.17
2019-02-14T21:08:06.188Z,9.80
2019-02-14T21:10:35.067Z,11.00
2019-02-14T21:13:03.996Z,11.07
2019-02-14T21:15:32.975Z,16.03
2019-02-14T21:18:02.059Z,14.00
2019-02-14T21:20:30.891Z,16.43
2019-02-14T21:22:59.885Z,13.40
2019-02-14T21:25:28.833Z,16.83
2019-02-14T21:27:57.727Z,17.77
2019-02-14T21:30:26.690Z,17.37
2019-02-14T21:32:55.613Z,26.47
2019-02-14T21:35:24.467Z,15.80
2019-02-14T21:37:53.362Z,17.03
2019-02-14T21:40:22.335Z,18.57
2019-02-14T21:42:51.284Z,18.23
2019-02-14T21:45:20.154Z,22.37
2019-02-14T21:47:49.090Z,19.13
2019-02-14T21:50:17.941Z,19.57
2019-02-14T21:52:46.963Z,14.13
2019-02-14T21:55:15.820Z,12.28
2019-02-14T21:57:44.813Z,11.40
2019-02-14T22:00:15.324Z,13.70
2019-02-14T22:02:44.669Z,13.40
2019-02-14T22:05:13.642Z,16.70
2019-02-14T22:07:42.699Z,16.47
2019-02-14T22:10:11.841Z,20.40
2019-02-14T22:12:42.747Z,14.87
2019-02-14T22:15:12.346Z,18.30
2019-02-14T22:17:41.273Z,14.13
2019-02-14T22:20:10.177Z,14.50
2019-02-14T22:22:39.048Z,13.93
2019-02-14T22:25:08.276Z,19.47
2019-02-14T22:27:37.300Z,17.07
2019-02-14T22:30:09.324Z,15.00
2019-02-14T22:32:38.192Z,14.97
2019-02-14T22:35:07.175Z,14.55
2019-02-14T22:37:36.101Z,18.05
2019-02-14T22:40:05.229Z,16.07
2019-02-14T22:42:34.102Z,15.07
2019-02-14T22:45:02.941Z,17.90
2019-02-14T22:47:31.824Z,24.23
2019-02-14T22:50:00.713Z,23.25
2019-02-14T22:52:29.569Z,20.47
2019-02-14T22:54:58.429Z,16.82
2019-02-14T22:57:27.317Z,17.97
2019-02-14T22:59:56.219Z,16.50
2019-02-14T23:02:25.136Z,16.87
2019-02-14T23:04:54.031Z,16.60
2019-02-14T23:07:22.900Z,15.80
2019-02-14T23:09:51.787Z,13.45
2019-02-14T23:12:20.743Z,12.78
2019-02-14T23:14:49.632Z,14.23
2019-02-14T23:17:18.496Z,14.50
2019-02-14T23:19:47.368Z,17.47
2019-02-14T23:22:16.229Z,16.50
2019-02-14T23:24:45.098Z,20.93
2019-02-14T23:27:13.978Z,18.00
2019-02-14T23:29:42.936Z,18.57
2019-02-14T23:32:11.791Z,17.42
2019-02-14T23:34:40.671Z,15.70
2019-02-14T23:37:09.544Z,13.20
2019-02-14T23:39:38.466Z,15.97
2019-02-14T23:42:07.389Z,14.30
2019-02-14T23:44:36.357Z,11.57
2019-02-14T23:47:05.254Z,15.03
2019-02-14T23:49:34.131Z,14.40
2019-02-14T23:52:02.983Z,11.70
2019-02-14T23:54:31.900Z,13.83
2019-02-14T23:57:00.734Z,13.53
2019-02-14T23:59:29.637Z,16.30
